Latest Weather Observations for Lochington

IDQ60801

Issued at 8:32 pm EST Sunday 29 March 2015 (issued every 30 minutes, with the page automatically refreshed every 10 minutes)

About weather observations | Map of weather stations | Latest weather observations for QLD | Other Formats
Station Details ID: 035139 Name: LOCHINGTON Lat: -23.94 Lon: 147.53 Height: 267.19 m
Data from the previous 72 hours. | See also: Recent months at Lochington
Date/Time
EST
Temp
°C
App
Temp
°C
Dew
Point
Rel
Hum
%
Delta-T
°C
Wind Press
QNH
hPa
Press
MSL
hPa
Rain
since 9 am
mm
Dir
 
Spd
km/h
Gust
km/h
Spd
kts
Gust
kts
29/08:00pm 26.4 27.0 14.2 47 7.3 ESE 4 4 2 2 1018.8 1017.2 0.0
29/07:30pm 27.2 27.7 13.9 44 8.0 ESE 4 4 2 2 1018.4 1016.8 0.0
29/07:00pm 27.6 27.9 13.5 41 8.4 SE 4 6 2 3 1018.0 1016.4 0.0
29/06:30pm 28.9 29.4 12.8 37 9.6 ESE 2 4 1 2 1017.7 1016.1 0.0
29/06:00pm 30.0 29.8 12.9 35 10.2 E 6 9 3 5 1017.3 1015.7 0.0
29/05:30pm 31.5 31.5 13.7 33 10.8 ESE 6 11 3 6 1017.0 1015.4 0.0
29/05:00pm 32.3 31.2 13.0 31 11.7 E 11 17 6 9 1016.9 1015.3 0.0
29/04:30pm 32.8 32.7 13.9 31 11.6 SE 7 13 4 7 1016.9 1015.3 0.0
29/04:00pm 31.6 30.3 13.8 34 10.9 E 13 20 7 11 1016.8 1015.2 0.0
29/03:30pm 33.4 33.9 14.9 32 11.6 ENE 6 11 3 6 1016.9 1015.3 0.0
29/03:00pm 32.7 32.2 14.8 34 11.1 ENE 11 22 6 12 1017.3 1015.7 0.0
29/02:30pm 33.0 32.9 15.9 35 10.8 NNE 11 19 6 10 1017.7 1016.1 0.0
29/02:00pm 32.5 32.8 15.9 36 10.5 ENE 9 19 5 10 1018.0 1016.4 0.0
29/01:30pm 31.8 32.1 16.1 38 9.9 E 9 19 5 10 1018.5 1016.9 0.0
29/01:00pm 31.6 31.4 16.7 40 9.5 ENE 13 20 7 11 1019.1 1017.6 0.0
29/12:30pm 30.2 30.0 16.6 44 8.6 E 13 22 7 12 1019.4 1017.9 0.0
29/12:00pm 30.9 30.9 17.2 43 8.8 ENE 13 26 7 14 1019.9 1018.4 0.0
29/11:30am 29.8 29.8 17.3 47 8.0 NE 13 22 7 12 1020.6 1019.0 0.0
29/11:00am 29.7 29.6 17.8 48 7.6 NE 15 24 8 13 1021.1 1019.5 0.0
29/10:30am 29.1 29.5 18.2 51 7.0 ENE 13 20 7 11 1021.4 1019.8 0.0
29/10:00am 28.0 28.5 18.4 56 6.2 ENE 13 22 7 12 1021.9 1020.3 0.0
29/09:30am 27.4 28.4 19.5 62 5.2 ENE 13 17 7 9 1022.1 1020.5 0.0
29/09:00am 26.8 27.5 19.7 65 4.6 ENE 15 22 8 12 1021.8 1020.2 0.0
29/08:30am 25.3 26.5 19.9 72 3.5 ENE 13 22 7 12 1021.6 1020.0 0.0
29/08:00am 24.8 25.7 20.1 75 3.1 ENE 15 20 8 11 1021.1 1019.5 0.0
29/07:30am 23.6 25.1 19.7 79 2.5 ENE 11 17 6 9 1020.7 1019.1 0.0
29/07:00am 22.4 24.4 19.2 82 2.0 ENE 7 9 4 5 1020.3 1018.7 0.0
29/06:30am 22.3 24.4 18.9 81 2.2 ENE 6 7 3 4 1019.7 1018.2 0.0
29/06:00am 21.9 23.8 18.5 81 2.2 E 6 7 3 4 1019.3 1017.8 0.0
29/05:30am 21.4 23.0 18.2 82 2.0 E 7 7 4 4 1018.9 1017.4 0.0
29/05:00am 21.5 22.9 17.9 80 2.3 E 7 9 4 5 1018.5 1016.9 0.0
29/04:30am 22.3 23.5 18.3 78 2.5 ENE 9 13 5 7 1018.0 1016.4 0.0
29/04:00am 21.7 23.4 18.1 80 2.3 E 6 7 3 4 1017.8 1016.2 0.0
29/03:30am 21.4 22.7 17.6 79 2.4 ENE 7 11 4 6 1017.6 1016.0 0.0
29/03:00am 20.8 22.1 17.2 80 2.2 ENE 6 7 3 4 1017.4 1015.8 0.0
29/02:30am 20.0 21.9 15.8 77 2.5 CALM 0 0 0 0 1017.5 1015.9 0.0
29/02:00am 20.8 22.8 16.0 74 2.9 CALM 0 0 0 0 1017.8 1016.2 0.0
29/01:30am 21.2 23.2 16.0 72 3.2 CALM 0 0 0 0 1017.9 1016.3 0.0
29/01:00am 23.4 24.5 16.7 66 4.1 ENE 6 7 3 4 1017.9 1016.3 0.0
29/12:30am 22.4 23.3 15.0 63 4.4 E 4 6 2 3 1018.2 1016.6 0.0
29/12:00am 23.6 24.2 15.4 60 5.0 ENE 6 6 3 3 1018.3 1016.7 0.0
 
Date/Time
EST
Temp
°C
App
Temp
°C
Dew
Point
Rel
Hum
%
Delta-T
°C
Wind Press
QNH
hPa
Press
MSL
hPa
Rain
since 9 am
mm
Dir
 
Spd
km/h
Gust
km/h
Spd
kts
Gust
kts
28/11:30pm 24.4 25.0 15.9 59 5.2 ENE 7 11 4 6 1018.3 1016.7 0.0
28/11:00pm 23.9 24.1 14.6 56 5.6 E 7 9 4 5 1018.4 1016.8 0.0
28/10:30pm 24.8 25.1 14.9 54 6.0 ENE 7 15 4 8 1018.4 1016.8 0.0
28/10:00pm 24.4 24.6 14.2 53 6.1 E 6 7 3 4 1018.1 1016.5 0.0
28/09:30pm 24.9 25.1 14.1 51 6.5 E 6 7 3 4 1018.0 1016.4 0.0
28/09:00pm 25.6 25.8 14.1 49 6.9 ESE 6 6 3 3 1017.9 1016.3 0.0
28/08:30pm 25.8 25.5 14.3 49 6.9 ESE 9 11 5 6 1017.9 1016.3 0.0
28/08:00pm 26.2 26.3 14.0 47 7.3 ESE 6 9 3 5 1017.7 1016.1 0.0
28/07:30pm 26.7 26.8 13.8 45 7.7 ESE 6 7 3 4 1017.4 1015.8 0.0
28/07:00pm 27.6 27.6 14.3 44 8.1 SE 7 9 4 5 1017.1 1015.5 0.0
28/06:30pm 28.6 28.2 14.1 41 8.8 SE 9 13 5 7 1016.5 1014.9 0.0
28/06:00pm 29.9 29.5 14.0 37 9.7 SE 9 13 5 7 1016.3 1014.7 0.0
28/05:30pm 31.5 30.8 13.3 33 11.0 SE 9 15 5 8 1015.9 1014.4 0.0
28/05:00pm 32.2 31.2 13.4 32 11.4 SSE 11 15 6 8 1015.6 1014.1 0.0
28/04:30pm 32.6 32.7 13.8 32 11.5 ESE 6 11 3 6 1015.6 1014.1 0.0
28/04:00pm 32.5 32.7 13.2 31 11.7 SSE 4 11 2 6 1015.7 1014.2 0.0
28/03:30pm 32.9 32.1 14.0 32 11.6 ESE 11 17 6 9 1015.8 1014.3 0.0
28/03:00pm 33.1 32.9 14.7 33 11.4 E 9 15 5 8 1016.0 1014.5 0.0
28/02:30pm 32.6 32.6 14.2 32 11.3 ENE 7 15 4 8 1016.3 1014.7 0.0
28/02:00pm 32.3 32.6 14.9 35 10.8 E 7 19 4 10 1016.8 1015.2 0.0
28/01:30pm 31.5 31.3 14.6 36 10.4 SSW 9 13 5 7 1017.2 1015.6 0.0
28/01:00pm 31.3 30.7 13.6 34 10.7 ESE 9 17 5 9 1017.8 1016.2 0.0
28/12:30pm 30.9 30.0 13.7 35 10.5 NE 11 28 6 15 1018.5 1016.9 0.0
28/12:00pm 30.6 30.5 13.8 35 10.2 E 7 17 4 9 1019.0 1017.5 0.0
28/11:30am 30.0 29.0 13.3 36 10.1 ENE 11 19 6 10 1019.4 1017.9 0.0
28/11:00am 29.3 27.6 12.3 35 10.0 ENE 13 22 7 12 1019.9 1018.4 0.0
28/10:30am 28.6 27.3 12.5 37 9.5 NE 11 20 6 11 1020.2 1018.6 0.0
28/10:00am 28.3 25.9 10.0 32 10.4 NE 13 19 7 10 1020.5 1018.9 0.0
28/09:30am 27.3 23.6 6.1 26 11.2 ENE 15 22 8 12 1020.6 1019.0 0.0
28/09:00am 26.9 24.1 5.2 25 11.2 E 9 15 5 8 1020.7 1019.1 0.0
28/08:30am 26.2 22.8 4.1 24 11.2 E 11 17 6 9 1020.3 1018.7 0.0
28/08:00am 25.2 21.9 4.3 26 10.5 E 11 17 6 9 1019.9 1018.4 0.0
28/07:30am 23.7 21.5 5.1 30 9.4 E 6 11 3 6 1019.6 1018.1 0.0
28/07:00am 21.6 20.0 8.1 42 7.1 ENE 6 7 3 4 1019.2 1017.7 0.0
28/06:30am 18.6 17.8 9.7 56 4.8 ENE 4 4 2 2 1018.9 1017.4 0.0
28/06:00am 18.3 18.6 12.3 68 3.4 E 2 4 1 2 1018.7 1017.1 0.0
28/05:30am 18.9 18.9 11.0 60 4.3 ENE 2 6 1 3 1018.3 1016.7 0.0
28/05:00am 19.0 19.4 11.1 60 4.4 CALM 0 0 0 0 1018.1 1016.5 0.0
28/04:30am 19.8 19.5 10.0 53 5.3 ENE 2 4 1 2 1018.0 1016.4 0.0
28/04:00am 21.7 20.1 8.6 43 7.0 E 7 11 4 6 1017.8 1016.2 0.0
28/03:30am 22.2 20.8 9.4 44 7.0 ESE 7 11 4 6 1017.4 1015.8 0.0
28/03:00am 21.4 21.6 10.6 50 6.0 CALM 0 0 0 0 1017.3 1015.7 0.0
28/02:30am 21.0 21.0 12.4 58 4.9 WNW 4 6 2 3 1017.4 1015.8 0.0
28/02:00am 22.2 21.9 11.3 50 6.1 SE 4 6 2 3 1017.2 1015.6 0.0
28/01:30am 22.6 21.8 11.7 50 6.2 ESE 7 9 4 5 1017.4 1015.8 0.0
28/01:00am 23.1 22.4 12.1 50 6.3 E 7 11 4 6 1017.4 1015.8 0.0
28/12:30am 23.8 23.2 13.4 52 6.1 ESE 9 13 5 7 1017.7 1016.1 0.0
28/12:00am 23.5 23.0 13.9 55 5.7 ESE 9 11 5 6 1017.9 1016.3 0.0
 
Date/Time
EST
Temp
°C
App
Temp
°C
Dew
Point
Rel
Hum
%
Delta-T
°C
Wind Press
QNH
hPa
Press
MSL
hPa
Rain
since 9 am
mm
Dir
 
Spd
km/h
Gust
km/h
Spd
kts
Gust
kts
27/11:30pm 24.0 23.5 13.8 53 6.0 E 9 11 5 6 1017.9 1016.3 0.0
27/11:00pm 24.9 24.7 13.5 49 6.7 ESE 7 11 4 6 1017.9 1016.3 0.0
27/10:30pm 25.1 25.0 13.9 49 6.7 SE 7 13 4 7 1018.1 1016.5 0.0
27/10:00pm 23.6 24.7 14.6 57 5.4 SSE 2 6 1 3 1018.2 1016.6 0.0
27/09:30pm 24.6 25.3 14.4 53 6.1 ESE 4 6 2 3 1018.1 1016.5 0.0
27/09:00pm 24.8 24.9 14.0 51 6.4 E 6 7 3 4 1017.9 1016.3 0.0
27/08:30pm 25.1 24.9 14.6 52 6.3 E 9 9 5 5 1017.6 1016.0 0.0
27/08:00pm 25.5 25.5 14.3 50 6.7 E 7 9 4 5 1017.5 1015.9 0.0
27/07:30pm 26.3 25.9 14.1 47 7.3 ESE 9 11 5 6 1017.1 1015.5 0.0
27/07:00pm 27.2 27.0 14.6 46 7.7 ESE 9 13 5 7 1016.9 1015.3 0.0
27/06:30pm 28.3 27.8 13.8 41 8.7 ESE 9 13 5 7 1016.6 1015.0 0.0
27/06:00pm 29.5 28.5 13.3 37 9.7 ESE 11 15 6 8 1016.2 1014.6 0.0
27/05:30pm 30.7 29.2 13.0 33 10.6 ESE 13 17 7 9 1015.9 1014.4 0.0
27/05:00pm 31.1 30.8 13.4 34 10.7 SE 7 11 4 6 1015.7 1014.2 0.0
27/04:30pm 31.7 31.6 13.9 34 10.9 SW 7 13 4 7 1015.6 1014.1 0.0
27/04:00pm 32.3 31.7 13.5 32 11.5 SSW 9 17 5 9 1015.6 1014.1 0.0
27/03:30pm 32.4 31.5 13.6 32 11.5 SSW 11 15 6 8 1015.5 1013.9 0.0
27/03:00pm 32.5 32.5 14.1 32 11.3 S 7 17 4 9 1015.6 1014.1 0.0
27/02:30pm 32.7 33.3 14.3 32 11.4 E 4 9 2 5 1015.8 1014.3 0.0
27/02:00pm 32.6 33.1 15.1 34 10.9 S 6 11 3 6 1016.3 1014.7 0.0
27/01:30pm 31.4 31.5 14.5 35 10.4 SSE 7 20 4 11 1016.8 1015.2 0.0
27/01:00pm 30.8 30.7 14.0 36 10.2 ESE 7 13 4 7 1017.4 1015.8 0.0
27/12:30pm 30.5 30.7 14.6 38 9.8 SW 7 9 4 5 1017.9 1016.3 0.0
27/12:00pm 30.3 30.1 13.6 36 10.1 SSW 7 11 4 6 1018.6 1017.0 0.0
27/11:30am 29.9 29.0 13.6 36 9.9 ESE 11 17 6 9 1019.1 1017.6 0.0
27/11:00am 29.5 28.8 12.0 34 10.3 E 7 13 4 7 1019.7 1018.2 0.0
27/10:30am 28.7 27.3 10.8 33 10.3 ESE 9 15 5 8 1020.4 1018.8 0.0
27/10:00am 28.7 27.4 11.3 34 10.1 E 9 19 5 10 1020.5 1018.9 0.0
27/09:30am 27.9 26.0 10.6 34 9.9 ESE 11 17 6 9 1020.5 1018.9 0.0
27/09:00am 25.9 23.3 9.3 35 9.2 ESE 13 20 7 11 1020.5 1018.9 0.0
27/08:30am 25.3 22.2 8.7 35 9.1 ESE 15 20 8 11 1020.5 1018.9 0.0
27/08:00am 24.9 23.0 11.8 44 7.5 ESE 13 17 7 9 1020.4 1018.8 0.0
27/07:30am 24.1 26.0 19.0 73 3.3 E 7 11 4 6 1019.9 1018.4 0.0
27/07:00am 23.2 25.9 20.2 83 2.0 E 6 6 3 3 1019.5 1018.0 0.0
27/06:30am 22.6 25.5 19.9 85 1.8 ESE 4 4 2 2 1019.4 1017.9 0.0
27/06:00am 22.7 25.5 19.7 83 1.9 E 4 6 2 3 1019.1 1017.6 0.0
27/05:30am 23.0 25.4 20.0 83 2.0 NE 7 9 4 5 1018.6 1017.0 0.0
27/05:00am 23.2 25.7 20.2 83 2.0 NE 7 9 4 5 1018.1 1016.5 0.0
27/04:30am 23.3 26.2 19.9 81 2.2 E 4 6 2 3 1018.0 1016.4 0.0
27/04:00am 23.2 26.0 19.6 80 2.3 E 4 4 2 2 1017.9 1016.3 0.0
27/03:30am 23.7 25.9 19.6 78 2.7 E 7 11 4 6 1017.8 1016.2 0.0
27/03:00am 24.2 25.7 19.7 76 2.9 ESE 11 17 6 9 1017.8 1016.2 0.0
27/02:30am 24.5 26.1 20.0 76 2.9 ESE 11 17 6 9 1017.8 1016.2 0.0
27/02:00am 23.6 25.8 19.7 79 2.5 E 7 11 4 6 1017.8 1016.2 0.0
27/01:30am 23.4 25.9 19.8 80 2.3 ESE 6 11 3 6 1018.1 1016.5 0.0
27/01:00am 22.9 25.5 20.1 84 1.8 NNW 6 6 3 3 1018.2 1016.6 0.0
27/12:30am 23.3 26.0 19.5 79 2.5 W 4 7 2 4 1018.2 1016.6 0.0
27/12:00am 23.4 26.8 19.3 78 2.6 CALM 0 0 0 0 1017.9 1016.3 0.0
 
Date/Time
EST
Temp
°C
App
Temp
°C
Dew
Point
Rel
Hum
%
Delta-T
°C
Wind Press
QNH
hPa
Press
MSL
hPa
Rain
since 9 am
mm
Dir
 
Spd
km/h
Gust
km/h
Spd
kts
Gust
kts
26/11:30pm 23.8 25.1 18.4 72 3.4 SSE 9 15 5 8 1018.0 1016.4 0.0
26/11:00pm 24.6 26.5 19.0 71 3.6 SSE 7 17 4 9 1018.3 1016.7 0.0
26/10:30pm 24.2 26.0 19.5 75 3.0 ESE 9 13 5 7 1018.5 1016.9 0.0
26/10:00pm 24.6 25.9 20.1 76 2.9 ENE 13 19 7 10 1018.3 1016.7 0.0
26/09:30pm 26.2 28.4 20.3 70 3.9 NE 9 15 5 8 1018.3 1016.7 0.0
26/09:00pm 26.8 29.9 19.4 64 4.8 SE 2 4 1 2 1017.8 1016.2 0.0

Other Formats:

Comma delimited format used in spreadsheet applications
http://www.bom.gov.au/fwo/IDQ60801/IDQ60801.94399.axf

JavaScript Object Notation format (JSON) in row-major order
http://www.bom.gov.au/fwo/IDQ60801/IDQ60801.94399.json